createdAt,value
2023-03-27T00:01:17.842Z,70.77
2023-03-27T00:03:49.489Z,71.82
2023-03-27T00:06:22.027Z,71.47
2023-03-27T00:08:51.176Z,71.65
2023-03-27T00:11:19.938Z,72.70
2023-03-27T00:13:50.520Z,71.99
2023-03-27T00:16:23.820Z,72.12
2023-03-27T00:18:50.478Z,71.10
2023-03-27T00:21:17.274Z,73.97
2023-03-27T00:23:43.995Z,75.71
2023-03-27T00:26:12.144Z,75.63
2023-03-27T00:28:39.382Z,75.62
2023-03-27T00:31:11.564Z,74.91
2023-03-27T00:33:38.563Z,75.50
2023-03-27T00:36:06.188Z,75.73
2023-03-27T00:38:33.956Z,74.69
2023-03-27T00:41:01.219Z,73.57
2023-03-27T00:43:36.053Z,72.80
2023-03-27T00:46:27.813Z,73.34
2023-03-27T00:48:55.666Z,74.97
2023-03-27T00:51:24.996Z,75.18
2023-03-27T00:53:52.851Z,75.69
2023-03-27T00:56:20.106Z,77.29
2023-03-27T00:58:51.276Z,76.50
2023-03-27T01:01:21.737Z,74.91
2023-03-27T01:03:50.301Z,75.29
2023-03-27T01:06:17.692Z,76.65
2023-03-27T01:08:45.891Z,76.42
2023-03-27T01:11:49.734Z,74.97
2023-03-27T01:14:51.334Z,73.95
2023-03-27T01:17:47.295Z,74.60
2023-03-27T01:20:27.339Z,74.27
2023-03-27T01:23:36.161Z,73.77
2023-03-27T01:26:16.038Z,73.31
2023-03-27T01:29:29.010Z,72.64
2023-03-27T01:32:10.801Z,72.28
2023-03-27T01:35:21.750Z,72.47
2023-03-27T01:38:23.606Z,73.12
2023-03-27T01:44:20.136Z,73.65
2023-03-27T01:46:54.154Z,73.76
2023-03-27T01:49:31.381Z,73.60
2023-03-27T01:52:06.305Z,72.96
2023-03-27T01:54:38.007Z,73.00
2023-03-27T01:57:16.525Z,72.64
2023-03-27T01:59:49.075Z,73.06
2023-03-27T02:02:28.502Z,73.34
2023-03-27T02:05:13.580Z,73.30
2023-03-27T02:07:47.441Z,72.91
2023-03-27T02:10:19.640Z,72.27
2023-03-27T02:12:53.014Z,72.06
2023-03-27T02:15:26.224Z,72.64
2023-03-27T02:18:05.488Z,72.15
2023-03-27T02:20:34.092Z,72.06
2023-03-27T02:23:00.792Z,71.78
2023-03-27T02:25:32.397Z,72.47
2023-03-27T02:28:29.275Z,73.25
2023-03-27T02:31:06.322Z,73.52
2023-03-27T02:34:15.389Z,73.43
2023-03-27T02:37:07.834Z,73.33
2023-03-27T02:39:37.996Z,73.97
2023-03-27T02:42:28.698Z,73.79
2023-03-27T02:45:03.220Z,73.93
2023-03-27T02:47:40.542Z,74.13
2023-03-27T02:50:18.057Z,74.50
2023-03-27T02:52:54.017Z,73.93
2023-03-27T02:55:35.874Z,75.33
2023-03-27T02:58:11.059Z,74.35
2023-03-27T03:00:43.804Z,73.72
2023-03-27T03:03:36.053Z,73.31
2023-03-27T03:06:07.284Z,73.49
2023-03-27T03:08:38.854Z,73.40
2023-03-27T03:11:10.087Z,73.72
2023-03-27T03:13:37.413Z,74.14
2023-03-27T03:16:04.541Z,73.96
2023-03-27T03:18:31.085Z,73.67
2023-03-27T03:20:57.863Z,73.39
2023-03-27T03:23:24.648Z,73.24
2023-03-27T03:25:52.720Z,73.33
2023-03-27T03:28:19.656Z,73.20
2023-03-27T03:30:50.558Z,73.36
2023-03-27T03:33:19.510Z,73.85
2023-03-27T03:35:50.298Z,73.51
2023-03-27T03:38:38.340Z,73.51
2023-03-27T03:41:05.451Z,72.92
2023-03-27T03:43:32.153Z,73.05
2023-03-27T03:45:59.469Z,72.87
2023-03-27T03:48:26.478Z,72.78
2023-03-27T03:50:58.417Z,72.71
2023-03-27T03:53:25.133Z,73.04
2023-03-27T03:55:56.030Z,73.25
2023-03-27T03:58:34.740Z,73.04
2023-03-27T04:01:02.908Z,73.41
2023-03-27T04:03:34.116Z,73.65
2023-03-27T04:06:01.079Z,73.72
2023-03-27T04:08:28.420Z,73.80
2023-03-27T04:10:55.178Z,74.10
2023-03-27T04:13:22.054Z,74.46
2023-03-27T04:15:48.770Z,74.39
2023-03-27T04:18:16.435Z,74.74
2023-03-27T04:20:43.106Z,74.58
2023-03-27T04:23:10.220Z,74.81
2023-03-27T04:25:37.619Z,74.85
2023-03-27T04:28:04.336Z,74.27
2023-03-27T04:30:30.923Z,73.50
2023-03-27T04:33:00.029Z,74.03
2023-03-27T04:35:27.089Z,73.76
2023-03-27T04:37:53.708Z,74.16
2023-03-27T04:40:25.555Z,74.78
2023-03-27T04:42:58.154Z,74.63
2023-03-27T04:45:25.819Z,74.90
2023-03-27T04:47:52.666Z,74.43
2023-03-27T04:50:19.380Z,74.67
2023-03-27T04:52:50.641Z,74.22
2023-03-27T04:55:18.248Z,74.19
2023-03-27T04:57:47.754Z,74.79
2023-03-27T05:00:17.223Z,75.07
2023-03-27T05:02:44.845Z,74.99
2023-03-27T05:05:12.156Z,74.92
2023-03-27T05:07:39.193Z,75.54
2023-03-27T05:10:07.058Z,75.26
2023-03-27T05:12:33.639Z,75.94
2023-03-27T05:15:00.620Z,76.78
2023-03-27T05:17:27.229Z,76.13
2023-03-27T05:19:53.805Z,76.30
2023-03-27T05:22:20.347Z,75.87
2023-03-27T05:24:46.989Z,76.46
2023-03-27T05:27:13.524Z,78.33
2023-03-27T05:29:46.506Z,76.91
2023-03-27T05:32:14.681Z,76.83
2023-03-27T05:34:42.414Z,77.14
2023-03-27T05:37:09.745Z,77.10
2023-03-27T05:39:36.937Z,77.76
2023-03-27T05:42:03.911Z,77.37
2023-03-27T05:44:30.499Z,76.96
2023-03-27T05:46:57.283Z,77.37
2023-03-27T05:49:23.825Z,78.17
2023-03-27T05:51:50.930Z,78.40
2023-03-27T05:54:17.496Z,78.42
2023-03-27T05:56:44.122Z,78.36
2023-03-27T05:59:10.757Z,78.44
2023-03-27T06:01:37.381Z,78.56
2023-03-27T06:04:04.556Z,78.85
2023-03-27T06:06:32.849Z,77.89
2023-03-27T06:08:59.485Z,76.74
2023-03-27T06:11:26.208Z,77.28
2023-03-27T06:13:53.032Z,77.09
2023-03-27T06:16:20.985Z,77.29
2023-03-27T06:18:49.151Z,77.40
2023-03-27T06:21:16.210Z,77.22
2023-03-27T06:23:43.000Z,77.38
2023-03-27T06:26:09.827Z,76.32
2023-03-27T06:28:36.846Z,75.54
2023-03-27T06:31:04.060Z,76.04
2023-03-27T06:33:30.849Z,76.42
2023-03-27T06:36:00.903Z,75.43
2023-03-27T06:38:31.261Z,74.99
2023-03-27T06:40:59.755Z,75.15
2023-03-27T06:43:26.527Z,75.82
2023-03-27T06:45:53.359Z,75.24
2023-03-27T06:48:22.447Z,75.46
2023-03-27T06:50:51.340Z,74.76
2023-03-27T06:55:48.898Z,74.12
2023-03-27T06:58:24.396Z,74.53
2023-03-27T07:00:51.483Z,73.73
2023-03-27T07:03:41.248Z,73.27
2023-03-27T07:06:31.989Z,73.75
2023-03-27T07:08:58.615Z,74.24
2023-03-27T07:11:25.566Z,74.41
2023-03-27T07:14:13.565Z,73.98
2023-03-27T07:19:37.052Z,74.96
2023-03-27T07:22:03.625Z,75.41
2023-03-27T07:24:30.166Z,74.93
2023-03-27T07:26:56.713Z,75.43
2023-03-27T07:29:23.371Z,74.63
2023-03-27T07:34:20.853Z,74.65
2023-03-27T07:36:47.467Z,74.24
2023-03-27T07:39:14.257Z,74.14
2023-03-27T07:41:40.922Z,74.42
2023-03-27T07:44:07.459Z,74.73
2023-03-27T07:46:34.398Z,74.85
2023-03-27T07:49:01.120Z,74.87
2023-03-27T07:51:28.221Z,74.60
2023-03-27T07:53:58.455Z,74.27
2023-03-27T07:56:26.492Z,74.32
2023-03-27T07:58:53.249Z,73.67
2023-03-27T08:01:19.854Z,74.17
2023-03-27T08:03:48.565Z,73.45
2023-03-27T08:06:15.374Z,74.03
2023-03-27T08:08:42.102Z,73.81
2023-03-27T08:11:19.429Z,74.19
2023-03-27T08:13:54.412Z,74.26
2023-03-27T08:16:21.749Z,74.61
2023-03-27T08:18:49.863Z,74.54
2023-03-27T08:21:16.836Z,75.34
2023-03-27T08:23:43.432Z,74.89
2023-03-27T08:26:10.385Z,74.66
2023-03-27T08:28:38.054Z,75.10
2023-03-27T08:31:11.478Z,74.39
2023-03-27T08:33:39.503Z,75.19
2023-03-27T08:36:07.578Z,76.01
2023-03-27T08:38:39.295Z,77.19
2023-03-27T08:41:06.829Z,77.37
2023-03-27T08:43:43.169Z,76.27
2023-03-27T08:46:36.621Z,75.78
2023-03-27T08:49:20.011Z,75.34
2023-03-27T08:51:48.742Z,75.36
2023-03-27T08:54:19.846Z,75.55
2023-03-27T08:56:46.688Z,75.39
2023-03-27T08:59:17.490Z,75.12
2023-03-27T09:01:50.050Z,74.80
2023-03-27T09:04:22.608Z,74.83
2023-03-27T09:06:57.998Z,75.22
2023-03-27T09:09:31.190Z,75.35
2023-03-27T09:11:58.134Z,75.12
2023-03-27T09:14:32.951Z,74.97
2023-03-27T09:17:07.474Z,74.87
2023-03-27T09:19:53.200Z,75.43
2023-03-27T09:22:37.026Z,75.07
2023-03-27T09:25:14.893Z,75.03
2023-03-27T09:27:41.633Z,74.43
2023-03-27T09:30:20.540Z,74.55
2023-03-27T09:32:49.900Z,75.49
2023-03-27T09:35:20.552Z,75.84
2023-03-27T09:37:50.579Z,76.04
2023-03-27T09:40:45.190Z,76.16
2023-03-27T09:43:18.916Z,77.70
2023-03-27T09:45:48.039Z,77.10
2023-03-27T09:48:22.579Z,76.23
2023-03-27T09:50:49.533Z,76.84
2023-03-27T09:53:23.914Z,77.82
2023-03-27T09:56:06.159Z,78.03
2023-03-27T09:58:51.523Z,77.70
2023-03-27T10:01:29.168Z,77.23
2023-03-27T10:03:58.902Z,77.26
2023-03-27T10:07:01.632Z,77.06
2023-03-27T10:09:34.595Z,77.25
2023-03-27T10:12:04.890Z,77.69
2023-03-27T10:14:53.662Z,79.12
2023-03-27T10:17:27.172Z,78.43
2023-03-27T10:20:05.531Z,78.76
2023-03-27T10:22:36.418Z,79.27
2023-03-27T10:25:07.073Z,78.31
2023-03-27T10:27:36.317Z,77.33
2023-03-27T10:30:33.108Z,77.66
2023-03-27T10:32:59.923Z,77.02
2023-03-27T10:35:33.526Z,76.59
2023-03-27T10:38:14.058Z,76.83
2023-03-27T10:40:43.412Z,77.18
2023-03-27T10:43:28.818Z,76.65
2023-03-27T10:46:00.219Z,76.57
2023-03-27T10:48:49.763Z,76.11
2023-03-27T10:51:45.016Z,75.90
2023-03-27T10:54:36.454Z,75.83
2023-03-27T10:57:15.327Z,75.27
2023-03-27T10:59:50.753Z,75.89
2023-03-27T11:02:24.064Z,75.72
2023-03-27T11:05:02.386Z,76.37
2023-03-27T11:07:38.302Z,76.69
2023-03-27T11:10:31.606Z,75.85
2023-03-27T11:13:23.652Z,76.48
2023-03-27T11:16:31.726Z,76.44
2023-03-27T11:19:22.503Z,76.01
2023-03-27T11:21:59.660Z,76.10
2023-03-27T11:24:38.362Z,75.78
2023-03-27T11:27:16.080Z,75.30
2023-03-27T11:30:16.314Z,75.37
2023-03-27T11:32:52.890Z,75.60
2023-03-27T11:35:33.920Z,75.58
2023-03-27T11:38:08.125Z,74.83
2023-03-27T11:40:45.571Z,74.94
2023-03-27T11:43:13.362Z,75.36
2023-03-27T11:46:08.104Z,75.34
2023-03-27T11:48:40.930Z,76.87
2023-03-27T11:51:26.319Z,77.74
2023-03-27T11:54:06.329Z,77.76
2023-03-27T11:56:36.159Z,77.75
2023-03-27T11:59:28.399Z,76.75
2023-03-27T12:02:13.041Z,77.78
2023-03-27T12:04:57.919Z,78.28
2023-03-27T12:07:54.024Z,77.98
2023-03-27T12:10:29.417Z,78.40
2023-03-27T12:13:09.113Z,77.23
2023-03-27T12:15:35.728Z,76.91
2023-03-27T12:18:36.342Z,76.28
2023-03-27T12:21:13.655Z,76.43
2023-03-27T12:23:56.423Z,75.49
2023-03-27T12:26:31.859Z,74.37
2023-03-27T12:35:07.724Z,74.04
2023-03-27T12:37:59.611Z,74.87
2023-03-27T12:40:39.067Z,73.79
2023-03-27T12:43:30.534Z,74.57
2023-03-27T12:46:09.894Z,73.97
2023-03-27T12:49:34.223Z,74.17
2023-03-27T12:52:07.462Z,73.68
2023-03-27T12:54:36.246Z,72.56
2023-03-27T12:57:20.605Z,73.37
2023-03-27T13:00:37.288Z,72.77
2023-03-27T13:03:42.222Z,71.95
2023-03-27T13:06:24.667Z,70.71
2023-03-27T13:09:00.888Z,68.95
2023-03-27T13:11:52.670Z,66.68
2023-03-27T13:14:38.032Z,66.96
2023-03-27T13:17:30.086Z,65.68
2023-03-27T13:20:09.954Z,66.08
2023-03-27T13:22:47.713Z,67.60
2023-03-27T13:25:32.467Z,65.84
2023-03-27T13:29:04.750Z,66.55
2023-03-27T13:32:03.675Z,66.33
2023-03-27T13:35:25.758Z,66.63
2023-03-27T13:37:58.240Z,66.10
2023-03-27T13:40:36.749Z,66.55
2023-03-27T13:43:36.049Z,67.09
2023-03-27T13:46:06.069Z,67.95
2023-03-27T13:49:05.713Z,67.87
2023-03-27T13:51:51.776Z,69.03
2023-03-27T13:54:37.565Z,69.33
2023-03-27T13:57:09.917Z,70.83
2023-03-27T14:00:06.301Z,69.49
2023-03-27T14:02:54.262Z,70.50
2023-03-27T14:05:46.751Z,69.85
2023-03-27T14:08:35.604Z,68.06
2023-03-27T14:11:05.207Z,68.00
2023-03-27T14:13:44.530Z,69.08
2023-03-27T14:16:32.622Z,68.90
2023-03-27T14:19:17.543Z,68.03
2023-03-27T14:21:58.690Z,69.97
2023-03-27T14:24:36.824Z,69.70
2023-03-27T14:27:07.481Z,69.01
2023-03-27T14:29:35.110Z,68.90
2023-03-27T14:32:04.110Z,69.32
2023-03-27T14:34:47.383Z,68.81
2023-03-27T14:37:29.290Z,69.15
2023-03-27T14:39:58.096Z,67.99
2023-03-27T14:42:32.529Z,67.41
2023-03-27T14:45:20.282Z,67.49
2023-03-27T14:47:53.563Z,66.13
2023-03-27T14:50:20.544Z,65.73
2023-03-27T14:52:53.243Z,65.21
2023-03-27T14:55:22.851Z,64.88
2023-03-27T14:57:51.345Z,63.02
2023-03-27T15:00:21.319Z,62.91
2023-03-27T15:02:49.884Z,62.91
2023-03-27T15:05:19.175Z,62.38
2023-03-27T15:07:48.941Z,62.02
2023-03-27T15:10:28.082Z,62.00
2023-03-27T15:12:56.073Z,61.43
2023-03-27T15:15:26.111Z,61.45
2023-03-27T15:17:59.836Z,61.66
2023-03-27T15:20:31.251Z,62.81
2023-03-27T15:23:07.167Z,62.74
2023-03-27T15:25:46.453Z,61.90
2023-03-27T15:28:22.063Z,62.21
2023-03-27T15:30:53.930Z,62.82
2023-03-27T15:33:37.479Z,62.10
2023-03-27T15:36:22.477Z,60.96
2023-03-27T15:38:51.061Z,60.70
2023-03-27T15:41:17.745Z,61.15
2023-03-27T15:43:44.383Z,60.10
2023-03-27T15:46:17.143Z,60.67
2023-03-27T15:48:47.390Z,60.51
2023-03-27T15:51:20.209Z,60.27
2023-03-27T15:53:50.948Z,59.48
2023-03-27T15:56:26.872Z,59.41
2023-03-27T15:59:11.914Z,57.94
2023-03-27T16:01:52.167Z,58.59
2023-03-27T16:04:32.802Z,58.03
2023-03-27T16:07:16.803Z,58.00
2023-03-27T16:10:06.578Z,57.91
2023-03-27T16:12:52.391Z,58.71
2023-03-27T16:15:39.142Z,58.59
2023-03-27T16:18:28.456Z,58.39
2023-03-27T16:21:05.737Z,58.78
2023-03-27T16:23:32.453Z,58.45
2023-03-27T16:26:00.471Z,58.03
2023-03-27T16:28:29.704Z,57.58
2023-03-27T16:30:57.998Z,57.52
2023-03-27T16:33:27.542Z,56.72
2023-03-27T16:35:56.419Z,57.25
2023-03-27T16:38:23.216Z,56.40
2023-03-27T16:40:49.879Z,56.75
2023-03-27T16:43:16.754Z,56.95
2023-03-27T16:45:44.843Z,56.53
2023-03-27T16:48:13.498Z,57.08
2023-03-27T16:50:40.395Z,56.54
2023-03-27T16:53:07.044Z,57.21
2023-03-27T16:55:33.592Z,56.27
2023-03-27T16:58:00.600Z,57.34
2023-03-27T17:00:27.363Z,56.77
2023-03-27T17:02:54.264Z,57.23
2023-03-27T17:05:21.176Z,56.57
2023-03-27T17:07:48.274Z,56.20
2023-03-27T17:10:15.674Z,55.80
2023-03-27T17:12:42.750Z,55.61
2023-03-27T17:15:09.567Z,56.00
2023-03-27T17:17:36.637Z,54.35
2023-03-27T17:20:06.350Z,54.24
2023-03-27T17:22:33.598Z,54.88
2023-03-27T17:25:02.413Z,53.53
2023-03-27T17:27:29.186Z,53.33
2023-03-27T17:29:56.402Z,53.06
2023-03-27T17:32:24.656Z,53.39
2023-03-27T17:34:52.176Z,52.57
2023-03-27T17:37:19.836Z,52.19
2023-03-27T17:39:46.390Z,52.07
2023-03-27T17:42:13.049Z,52.45
2023-03-27T17:44:41.432Z,51.79
2023-03-27T17:47:08.485Z,51.84
2023-03-27T17:49:35.254Z,52.29
2023-03-27T17:52:07.683Z,52.44
2023-03-27T17:54:34.885Z,52.12
2023-03-27T17:57:02.075Z,51.85
2023-03-27T17:59:30.425Z,51.88
2023-03-27T18:01:57.851Z,51.93
2023-03-27T18:04:24.920Z,51.91
2023-03-27T18:06:52.253Z,52.11
2023-03-27T18:09:18.897Z,51.81
2023-03-27T18:11:46.282Z,51.93
2023-03-27T18:14:12.913Z,51.48
2023-03-27T18:16:39.583Z,51.31
2023-03-27T18:19:06.244Z,50.89
2023-03-27T18:21:33.195Z,50.79
2023-03-27T18:24:00.311Z,49.92
2023-03-27T18:26:27.089Z,50.29
2023-03-27T18:28:54.957Z,50.11
2023-03-27T18:31:22.022Z,50.55
2023-03-27T18:33:49.037Z,50.45
2023-03-27T18:36:16.053Z,49.95
2023-03-27T18:38:42.799Z,49.87
2023-03-27T18:41:10.330Z,50.29
2023-03-27T18:43:37.065Z,49.46
2023-03-27T18:46:06.073Z,52.54
2023-03-27T18:48:33.625Z,49.31
2023-03-27T18:51:02.903Z,49.62
2023-03-27T18:53:29.922Z,49.92
2023-03-27T18:55:58.325Z,49.95
2023-03-27T18:58:29.372Z,49.89
2023-03-27T19:00:56.997Z,49.79
2023-03-27T19:03:25.777Z,49.59
2023-03-27T19:05:53.186Z,49.59
2023-03-27T19:08:21.173Z,49.75
2023-03-27T19:10:50.373Z,49.69
2023-03-27T19:13:17.114Z,50.45
2023-03-27T19:15:43.931Z,49.87
2023-03-27T19:18:10.472Z,50.13
2023-03-27T19:20:37.024Z,50.11
2023-03-27T19:23:03.883Z,49.76
2023-03-27T19:25:33.518Z,50.55
2023-03-27T19:28:01.235Z,50.36
2023-03-27T19:30:28.506Z,50.26
2023-03-27T19:32:55.757Z,50.26
2023-03-27T19:35:22.409Z,49.98
2023-03-27T19:37:48.946Z,50.31
2023-03-27T19:40:15.875Z,51.34
2023-03-27T19:42:42.565Z,50.10
2023-03-27T19:45:09.409Z,49.77
2023-03-27T19:47:35.981Z,50.13
2023-03-27T19:50:02.794Z,50.38
2023-03-27T19:52:30.385Z,50.54
2023-03-27T19:54:56.938Z,49.64
2023-03-27T19:57:23.523Z,50.09
2023-03-27T19:59:50.790Z,49.96
2023-03-27T20:02:19.158Z,50.54
2023-03-27T20:04:46.802Z,50.24
2023-03-27T20:07:13.569Z,50.42
2023-03-27T20:09:40.297Z,49.90
2023-03-27T20:12:07.319Z,49.93
2023-03-27T20:14:34.044Z,49.63
2023-03-27T20:17:01.055Z,49.02
2023-03-27T20:19:30.723Z,49.50
2023-03-27T20:21:59.609Z,49.38
2023-03-27T20:24:26.315Z,49.89
2023-03-27T20:26:54.802Z,49.05
2023-03-27T20:29:23.420Z,48.50
2023-03-27T20:31:50.389Z,48.92
2023-03-27T20:34:20.024Z,49.00
2023-03-27T20:37:11.837Z,48.64
2023-03-27T20:39:47.146Z,48.59
2023-03-27T20:42:15.623Z,48.48
2023-03-27T20:44:46.901Z,48.44
2023-03-27T20:47:15.200Z,48.56
2023-03-27T20:49:43.107Z,48.68
2023-03-27T20:52:12.465Z,48.89
2023-03-27T20:54:44.456Z,48.63
2023-03-27T20:57:13.948Z,49.25
2023-03-27T20:59:40.558Z,49.38
2023-03-27T21:02:07.168Z,49.22
2023-03-27T21:04:33.848Z,49.13
2023-03-27T21:07:00.493Z,48.97
2023-03-27T21:09:27.742Z,48.89
2023-03-27T21:11:55.400Z,49.19
2023-03-27T21:14:22.575Z,49.21
2023-03-27T21:16:49.215Z,49.26
2023-03-27T21:19:15.947Z,49.14
2023-03-27T21:21:42.628Z,49.21
2023-03-27T21:24:09.276Z,49.46
2023-03-27T21:29:11.398Z,49.44
2023-03-27T21:31:41.501Z,49.15
2023-03-27T21:34:08.659Z,48.89
2023-03-27T21:36:35.662Z,49.49
2023-03-27T21:39:02.394Z,50.16
2023-03-27T21:41:29.312Z,49.94
2023-03-27T21:44:19.653Z,49.37
2023-03-27T21:46:46.378Z,49.55
2023-03-27T21:49:13.107Z,49.94
2023-03-27T21:51:39.707Z,50.14
2023-03-27T21:54:06.295Z,50.43
2023-03-27T21:56:33.088Z,50.68
2023-03-27T21:58:59.654Z,50.09
2023-03-27T22:01:26.548Z,50.44
2023-03-27T22:03:53.143Z,50.07
2023-03-27T22:06:19.775Z,50.23
2023-03-27T22:08:46.445Z,50.02
2023-03-27T22:11:13.064Z,49.69
2023-03-27T22:13:41.623Z,49.36
2023-03-27T22:16:13.502Z,48.98
2023-03-27T22:18:40.679Z,49.12
2023-03-27T22:21:26.461Z,48.96
2023-03-27T22:23:55.356Z,49.63
2023-03-27T22:26:25.715Z,49.17
2023-03-27T22:28:52.841Z,49.01
2023-03-27T22:31:21.176Z,49.09
2023-03-27T22:33:48.101Z,48.89
2023-03-27T22:36:14.934Z,49.55
2023-03-27T22:38:42.257Z,48.70
2023-03-27T22:41:11.286Z,48.86
2023-03-27T22:43:38.250Z,48.49
2023-03-27T22:46:20.676Z,48.05
2023-03-27T22:48:47.944Z,48.67
2023-03-27T22:51:14.592Z,48.19
2023-03-27T22:53:41.351Z,48.71
2023-03-27T22:56:08.514Z,49.30
2023-03-27T22:58:35.250Z,48.52
2023-03-27T23:12:01.129Z,49.00
2023-03-27T23:14:30.894Z,49.32
2023-03-27T23:17:21.305Z,49.45
2023-03-27T23:22:29.402Z,49.11
2023-03-27T23:24:56.028Z,48.46
2023-03-27T23:27:22.601Z,49.39
2023-03-27T23:29:49.134Z,48.34
2023-03-27T23:32:15.955Z,48.89
2023-03-27T23:34:42.529Z,49.14
2023-03-27T23:37:14.677Z,48.90
2023-03-27T23:39:41.419Z,48.82
2023-03-27T23:42:07.998Z,48.92
2023-03-27T23:44:34.539Z,49.60
2023-03-27T23:47:10.595Z,49.22
2023-03-27T23:49:38.589Z,48.62
2023-03-27T23:52:11.145Z,48.60
2023-03-27T23:54:37.788Z,49.27
2023-03-27T23:57:04.397Z,48.76
2023-03-27T23:59:38.066Z,48.29
